Time;durP1;ratioP1;P1;durP2;ratioP2;P2;SDS_P1;SDS_P2;PMS_P1;PMS_P2;Temp;Humidity;BMP_temperature;BMP_pressure;BME280_temperature;BME280_humidity;BME280_pressure;Samples;Min_cycle;Max_cycle;Signal;HPM_P1;HPM_P2
2023/10/25 00:00:48;;;;;;;12.73;6.00;;;;;;;16.94;76.83;99815.40;125294;1099;104222;-78
2023/10/25 00:03:34;;;;;;;13.47;6.10;;;;;;;16.94;76.98;99807.45;125301;1099;101983;-78
2023/10/25 00:06:06;;;;;;;12.80;5.73;;;;;;;16.94;77.07;99802.16;125328;1099;101881;-78
2023/10/25 00:08:37;;;;;;;10.30;5.47;;;;;;;16.95;77.13;99793.30;125258;1099;104201;-77
2023/10/25 00:11:09;;;;;;;12.40;6.20;;;;;;;16.95;77.21;99787.13;125369;1098;104198;-77
2023/10/25 00:13:41;;;;;;;15.03;5.87;;;;;;;16.93;77.48;99791.55;125091;1098;104199;-77
2023/10/25 00:16:13;;;;;;;15.57;5.93;;;;;;;16.92;77.77;99784.48;125213;1099;104208;-77
2023/10/25 00:18:44;;;;;;;10.13;5.60;;;;;;;16.92;77.57;99782.70;125304;1099;104188;-77
2023/10/25 00:21:15;;;;;;;15.90;6.27;;;;;;;16.92;77.46;99787.13;125378;1099;104274;-78
2023/10/25 00:23:47;;;;;;;11.23;5.63;;;;;;;16.92;77.52;99793.30;125361;1099;104239;-78
2023/10/25 00:26:18;;;;;;;11.97;6.07;;;;;;;16.91;77.92;99795.95;125295;1099;104172;-78
2023/10/25 00:28:51;;;;;;;11.10;5.83;;;;;;;16.91;77.98;99793.30;125317;1099;102151;-78
2023/10/25 00:31:23;;;;;;;11.33;5.73;;;;;;;16.89;78.20;99793.30;125370;1099;104175;-78
2023/10/25 00:33:55;;;;;;;12.83;5.77;;;;;;;16.88;78.25;99781.83;124784;1099;104227;-77
2023/10/25 00:36:26;;;;;;;11.83;5.80;;;;;;;16.88;78.15;99789.78;125372;1099;104166;-77
2023/10/25 00:38:57;;;;;;;11.97;5.60;;;;;;;16.89;78.23;99785.35;125427;1099;104239;-77
2023/10/25 00:41:29;;;;;;;12.83;6.27;;;;;;;16.90;78.29;99776.53;125311;1099;104274;-77
2023/10/25 00:44:00;;;;;;;15.57;6.07;;;;;;;16.89;78.29;99780.95;124730;1099;104191;-77
2023/10/25 00:46:32;;;;;;;12.40;5.87;;;;;;;16.91;78.23;99777.41;125368;1099;104262;-77
2023/10/25 00:49:06;;;;;;;14.97;6.03;;;;;;;16.93;78.26;99775.66;125379;1099;104163;-77
2023/10/25 00:51:37;;;;;;;11.95;5.90;;;;;;;16.93;78.81;99775.66;124853;1099;102041;-77
2023/10/25 00:54:10;;;;;;;13.83;5.77;;;;;;;16.92;78.71;99773.88;124708;1099;102126;-77
2023/10/25 00:56:43;;;;;;;13.00;6.03;;;;;;;16.91;79.23;99764.15;125350;1099;104235;-77
2023/10/25 00:59:15;;;;;;;12.87;5.83;;;;;;;16.89;78.70;99762.41;125349;1099;102335;-77
2023/10/25 01:01:48;;;;;;;12.50;5.87;;;;;;;16.88;78.98;99759.77;125591;1099;101788;-77
2023/10/25 01:04:19;;;;;;;14.97;6.20;;;;;;;16.86;79.26;99750.91;125410;1099;102432;-77
2023/10/25 01:06:52;;;;;;;10.53;5.90;;;;;;;16.84;79.20;99742.97;125241;1099;104252;-77
2023/10/25 01:09:24;;;;;;;17.23;6.12;;;;;;;16.82;79.07;99742.06;125421;1099;104163;-77
2023/10/25 01:11:55;;;;;;;16.43;5.60;;;;;;;16.81;79.01;99735.02;125367;1099;102024;-77
2023/10/25 01:14:31;;;;;;;12.03;5.97;;;;;;;16.79;79.24;99736.77;125343;1099;101698;-77
2023/10/25 01:17:02;;;;;;;15.00;6.10;;;;;;;16.77;79.28;99729.73;125049;1099;102086;-77
2023/10/25 01:19:34;;;;;;;13.60;5.93;;;;;;;16.74;79.38;99722.66;125185;1099;101923;-77
2023/10/25 01:22:05;;;;;;;14.85;5.90;;;;;;;16.73;79.81;99725.31;125354;1099;101865;-77
2023/10/25 01:24:37;;;;;;;14.17;6.43;;;;;;;16.69;79.76;99719.14;125382;1099;101898;-77
2023/10/25 01:27:08;;;;;;;13.73;6.47;;;;;;;16.66;79.94;99717.38;125323;1099;101820;-77
2023/10/25 01:29:39;;;;;;;14.33;6.23;;;;;;;16.63;79.85;99705.91;125303;1098;101925;-78
2023/10/25 01:32:11;;;;;;;15.33;6.40;;;;;;;16.60;80.05;99711.22;125323;1099;104203;-77
2023/10/25 01:34:42;;;;;;;15.20;6.77;;;;;;;16.58;80.16;99710.31;125324;1099;104199;-77
2023/10/25 01:37:13;;;;;;;12.57;6.07;;;;;;;16.57;79.86;99703.27;125345;1099;104304;-77
2023/10/25 01:39:45;;;;;;;13.07;6.30;;;;;;;16.56;80.34;99698.84;125332;1099;104258;-77
2023/10/25 01:42:16;;;;;;;16.50;6.50;;;;;;;16.53;80.29;99692.68;125312;1099;104194;-77
2023/10/25 01:44:47;;;;;;;12.87;6.30;;;;;;;16.53;79.97;99694.42;124744;1099;102084;-77
2023/10/25 01:47:19;;;;;;;14.00;6.47;;;;;;;16.50;80.50;99691.78;125251;1099;101849;-76
2023/10/25 01:49:50;;;;;;;13.43;6.97;;;;;;;16.49;80.48;99697.98;125160;1099;104166;-77
2023/10/25 01:52:22;;;;;;;17.20;7.03;;;;;;;16.48;80.62;99702.38;125298;1099;104195;-77
2023/10/25 01:54:53;;;;;;;16.20;6.37;;;;;;;16.49;80.56;99713.88;125243;1099;104230;-76
2023/10/25 01:57:25;;;;;;;14.83;6.93;;;;;;;16.49;80.61;99713.88;125214;1099;104172;-78
2023/10/25 01:59:56;;;;;;;16.87;6.90;;;;;;;16.50;80.62;99718.27;124704;1098;104312;-77
2023/10/25 02:02:28;;;;;;;13.70;6.90;;;;;;;16.50;80.83;99729.77;124725;1099;104182;-77
2023/10/25 02:04:59;;;;;;;14.93;6.53;;;;;;;16.50;80.71;99719.17;125240;1099;101840;-76
2023/10/25 02:07:30;;;;;;;14.57;6.50;;;;;;;16.52;80.75;99719.16;125273;1098;104086;-77
2023/10/25 02:10:01;;;;;;;15.50;7.07;;;;;;;16.53;80.80;99720.91;125282;1099;102357;-77
2023/10/25 02:12:33;;;;;;;16.27;6.93;;;;;;;16.53;80.82;99713.87;125319;1098;101902;-77
2023/10/25 02:15:06;;;;;;;14.17;6.70;;;;;;;16.54;80.91;99704.15;124791;1099;104284;-77
2023/10/25 02:17:38;;;;;;;13.40;6.63;;;;;;;16.54;81.29;99707.67;124834;1099;104312;-77
2023/10/25 02:20:11;;;;;;;14.73;7.43;;;;;;;16.57;81.36;99700.62;125168;1099;102012;-77
2023/10/25 02:22:42;;;;;;;14.35;6.78;;;;;;;16.57;81.61;99704.14;124629;1098;104156;-76
2023/10/25 02:25:14;;;;;;;18.13;7.50;;;;;;;16.56;81.49;99690.91;126182;1098;102009;-76
2023/10/25 02:27:45;;;;;;;19.60;7.90;;;;;;;16.57;81.85;99684.73;124719;1099;102078;-76
2023/10/25 02:30:16;;;;;;;15.83;6.93;;;;;;;16.57;81.46;99696.20;125235;1099;101820;-76
2023/10/25 02:32:48;;;;;;;19.90;7.67;;;;;;;16.54;81.63;99694.42;125177;1099;104165;-76
2023/10/25 02:35:19;;;;;;;17.00;7.60;;;;;;;16.56;81.88;99697.07;125292;1099;104383;-78
2023/10/25 02:37:51;;;;;;;17.97;7.10;;;;;;;16.58;82.10;99699.72;125325;1098;104066;-77
2023/10/25 02:40:22;;;;;;;17.50;7.50;;;;;;;16.58;81.79;99681.18;125416;1098;104159;-78
2023/10/25 02:42:54;;;;;;;16.53;7.27;;;;;;;16.60;81.66;99671.48;125413;1099;104204;-77
2023/10/25 02:45:25;;;;;;;17.47;7.80;;;;;;;16.58;82.46;99668.84;125262;1099;102361;-77
2023/10/25 02:47:57;;;;;;;19.40;7.80;;;;;;;16.59;82.55;99672.36;125218;1099;104077;-77
2023/10/25 02:50:28;;;;;;;21.50;7.73;;;;;;;16.58;82.43;99673.23;125379;1099;102029;-77
2023/10/25 02:53:00;;;;;;;20.53;7.90;;;;;;;16.58;82.58;99668.84;125287;1099;104190;-77
2023/10/25 02:55:31;;;;;;;17.33;7.40;;;;;;;16.59;82.38;99664.41;124838;1099;102019;-77
2023/10/25 02:58:02;;;;;;;19.23;7.47;;;;;;;16.59;82.48;99648.52;125267;1098;104716;-78
2023/10/25 03:00:33;;;;;;;16.45;7.45;;;;;;;16.57;82.15;99645.88;125425;1099;104168;-77
2023/10/25 03:03:05;;;;;;;17.03;7.50;;;;;;;16.57;82.76;99637.06;125328;1099;104198;-77
2023/10/25 03:05:37;;;;;;;17.40;7.43;;;;;;;16.57;82.76;99626.47;125428;1099;104265;-77
2023/10/25 03:08:08;;;;;;;18.37;7.47;;;;;;;16.54;82.68;99617.63;125414;1099;101827;-78
2023/10/25 03:10:39;;;;;;;18.23;7.57;;;;;;;16.54;82.62;99620.27;125184;1098;101931;-76
2023/10/25 03:13:11;;;;;;;16.07;8.10;;;;;;;16.52;83.26;99602.65;125224;1099;102112;-76
2023/10/25 03:15:42;;;;;;;18.95;8.40;;;;;;;16.48;82.94;99609.70;125234;1099;101830;-77
2023/10/25 03:18:14;;;;;;;20.27;7.80;;;;;;;16.45;83.36;99600.89;125270;1099;104179;-76
2023/10/25 03:20:45;;;;;;;17.83;8.20;;;;;;;16.45;83.12;99603.54;124814;1099;104204;-77
2023/10/25 03:23:17;;;;;;;17.50;8.10;;;;;;;16.41;83.05;99594.73;125248;1099;101963;-77
2023/10/25 03:25:49;;;;;;;21.43;8.30;;;;;;;16.40;83.36;99587.66;125248;1099;101852;-77
2023/10/25 03:28:20;;;;;;;19.70;8.10;;;;;;;16.39;83.87;99587.67;125246;1099;104076;-77
2023/10/25 03:30:51;;;;;;;19.63;8.40;;;;;;;16.37;83.57;99587.67;125234;1099;104162;-78
2023/10/25 03:33:24;;;;;;;20.05;7.65;;;;;;;16.37;83.09;99582.37;125455;1099;101878;-78
2023/10/25 03:35:56;;;;;;;18.13;7.43;;;;;;;16.37;83.31;99587.67;125392;1099;104251;-78
2023/10/25 03:38:27;;;;;;;17.37;7.53;;;;;;;16.38;83.94;99585.89;124865;1099;104243;-78
2023/10/25 03:41:08;;;;;;;17.83;7.87;;;;;;;16.37;83.82;99581.50;125442;1099;104172;-78
2023/10/25 03:43:39;;;;;;;16.80;8.35;;;;;;;16.37;83.64;99581.50;125453;1099;102000;-77
2023/10/25 03:46:11;;;;;;;21.33;8.50;;;;;;;16.34;84.00;99572.66;125442;1099;101875;-78
2023/10/25 03:48:42;;;;;;;20.60;8.90;;;;;;;16.36;84.05;99575.30;125268;1099;104159;-78
2023/10/25 03:51:13;;;;;;;18.13;8.53;;;;;;;16.35;83.66;99571.79;125454;1099;101874;-77
2023/10/25 03:53:45;;;;;;;19.53;8.73;;;;;;;16.35;83.59;99557.69;125383;1098;101872;-78
2023/10/25 03:56:16;;;;;;;16.17;8.07;;;;;;;16.35;84.15;99550.61;125316;1099;102042;-77
2023/10/25 03:58:47;;;;;;;19.27;8.43;;;;;;;16.35;84.67;99552.39;125321;1099;104238;-77
2023/10/25 04:01:18;;;;;;;21.03;8.13;;;;;;;16.32;83.86;99542.67;125321;1099;104313;-77
2023/10/25 04:03:50;;;;;;;20.87;8.67;;;;;;;16.32;84.61;99540.03;125387;1099;104176;-78
2023/10/25 04:06:21;;;;;;;17.97;8.60;;;;;;;16.26;85.09;99531.23;125273;1099;102076;-78
2023/10/25 04:08:52;;;;;;;17.90;8.23;;;;;;;16.31;84.40;99540.03;125347;1099;104195;-77
2023/10/25 04:11:24;;;;;;;19.35;8.90;;;;;;;16.32;84.70;99544.45;124737;1099;102368;-77
2023/10/25 04:13:55;;;;;;;16.07;7.80;;;;;;;16.31;84.18;99530.35;125315;1098;104272;-77
2023/10/25 04:16:27;;;;;;;19.43;8.63;;;;;;;16.31;84.92;99525.05;125569;1099;104432;-83
2023/10/25 04:18:58;;;;;;;16.73;7.80;;;;;;;16.31;84.99;99521.50;125909;1099;102012;-86
2023/10/25 04:21:30;;;;;;;19.00;8.80;;;;;;;16.33;84.51;99509.13;125827;1099;101823;-81
2023/10/25 04:24:01;;;;;;;18.00;8.23;;;;;;;16.31;85.16;99506.52;125767;1099;101794;-84
2023/10/25 04:26:35;;;;;;;19.83;8.10;;;;;;;16.32;84.93;99497.67;125675;1099;101951;-84
2023/10/25 04:29:06;;;;;;;16.27;7.60;;;;;;;16.32;84.94;99486.22;125831;1099;101961;-83
2023/10/25 04:31:38;;;;;;;21.00;8.53;;;;;;;16.29;85.08;99475.64;125284;1099;104175;-84
2023/10/25 04:34:09;;;;;;;21.30;8.00;;;;;;;16.27;84.52;99470.35;127015;1098;102280;-84
2023/10/25 04:36:40;;;;;;;20.53;8.73;;;;;;;16.27;85.32;99477.42;126836;1098;102122;-83
2023/10/25 04:39:12;;;;;;;16.53;7.97;;;;;;;16.26;85.29;99480.95;126521;1098;101973;-84
2023/10/25 04:41:43;;;;;;;19.67;8.63;;;;;;;16.26;85.17;99470.36;127374;1098;106963;-86
2023/10/25 04:44:15;;;;;;;17.43;8.10;;;;;;;16.26;85.89;99478.30;127685;1098;102074;-85
2023/10/25 04:46:46;;;;;;;19.43;8.13;;;;;;;16.25;85.57;99476.52;127455;1098;101495;-85
2023/10/25 04:49:17;;;;;;;18.93;8.63;;;;;;;16.20;85.47;99467.73;127577;1099;101695;-88
2023/10/25 04:51:48;;;;;;;19.10;8.27;;;;;;;16.27;85.86;99480.07;127277;1098;118574;-88
2023/10/25 04:54:20;;;;;;;20.33;8.53;;;;;;;16.28;85.76;99481.81;127027;1098;101938;-88
2023/10/25 04:56:53;;;;;;;19.13;8.83;;;;;;;16.30;86.17;99482.70;126830;1098;101884;-88
2023/10/25 04:59:29;;;;;;;19.62;8.70;;;;;;;16.31;86.06;99471.20;127082;1098;101660;-86
2023/10/25 05:02:00;;;;;;;19.33;8.73;;;;;;;16.31;86.36;99469.47;126865;1099;102061;-91
2023/10/25 05:04:34;;;;;;;21.57;9.67;;;;;;;16.34;85.99;99460.61;127276;1098;101997;-85
2023/10/25 05:07:09;;;;;;;19.53;8.60;;;;;;;16.37;86.60;99446.48;127269;1098;101664;-86
2023/10/25 05:09:44;;;;;;;20.00;8.27;;;;;;;16.36;86.12;99440.29;126418;1099;101717;-88
2023/10/25 05:12:21;;;;;;;21.80;8.90;;;;;;;16.38;86.68;99437.64;126427;1099;111990;-86
2023/10/25 05:14:53;;;;;;;20.53;8.90;;;;;;;16.39;86.04;99429.69;127764;1098;101059;-85
2023/10/25 05:17:26;;;;;;;18.13;9.20;;;;;;;16.40;85.72;99436.75;126697;1098;101945;-84
2023/10/25 05:19:59;;;;;;;18.93;9.10;;;;;;;16.42;85.85;99434.09;126637;1098;101753;-83
2023/10/25 05:22:34;;;;;;;22.07;9.47;;;;;;;16.43;85.73;99431.45;126823;1098;101900;-83
2023/10/25 05:25:08;;;;;;;20.50;9.87;;;;;;;16.45;86.34;99431.44;127439;1098;102083;-87
2023/10/25 05:27:43;;;;;;;19.37;9.63;;;;;;;16.45;85.81;99424.36;126876;1098;101773;-78
2023/10/25 05:30:17;;;;;;;20.13;9.23;;;;;;;16.48;86.52;99423.48;125328;1098;104391;-80
2023/10/25 05:32:53;;;;;;;20.57;9.30;;;;;;;16.51;86.57;99429.63;126219;1098;107129;-80
2023/10/25 05:35:26;;;;;;;18.80;9.27;;;;;;;16.54;86.72;99424.31;125463;1099;102051;-79
2023/10/25 05:38:02;;;;;;;24.10;10.30;;;;;;;16.59;86.53;99415.47;126336;1099;104197;-76
2023/10/25 05:40:37;;;;;;;23.23;9.50;;;;;;;16.63;86.83;99410.14;125287;1099;101959;-75
2023/10/25 05:43:15;;;;;;;19.30;9.67;;;;;;;16.67;86.81;99406.60;126412;1098;104242;-84
2023/10/25 05:45:46;;;;;;;21.33;9.30;;;;;;;16.75;87.16;99408.30;124936;1102;104204;-82
2023/10/25 05:48:26;;;;;;;23.17;9.00;;;;;;;16.80;86.83;99399.44;126385;1098;104126;-81
2023/10/25 05:51:07;;;;;;;20.70;9.57;;;;;;;16.86;87.24;99394.13;125421;1099;104236;-87
2023/10/25 05:53:46;;;;;;;21.50;9.70;;;;;;;16.94;87.00;99395.82;126382;1098;101781;-84
2023/10/25 05:56:31;;;;;;;23.80;9.43;;;;;;;17.01;87.50;99402.84;126975;1098;102450;-84
2023/10/25 05:59:21;;;;;;;19.07;8.90;;;;;;;17.09;87.26;99401.00;125860;1099;102015;-86
2023/10/25 06:02:59;;;;;;;19.93;8.77;;;;;;;17.13;87.38;99397.44;126141;1099;102070;-87
2023/10/25 06:06:14;;;;;;;25.37;8.90;;;;;;;17.17;87.40;99393.88;125619;1099;102342;-87
2023/10/25 06:09:00;;;;;;;18.20;8.67;;;;;;;17.24;87.52;99398.22;126331;1099;102044;-81
2023/10/25 06:11:47;;;;;;;;;;;;;;;;;;;;;
2023/10/25 06:14:26;;;;;;;20.00;8.77;;;;;;;17.38;87.32;99395.44;125589;1099;104824;-84
2023/10/25 06:17:17;;;;;;;20.33;9.07;;;;;;;17.46;87.33;99384.75;126677;1098;101788;-81
2023/10/25 06:19:58;;;;;;;19.10;8.47;;;;;;;17.53;87.33;99386.46;126480;1099;101816;-89
2023/10/25 06:22:53;;;;;;;23.40;9.03;;;;;;;17.56;87.31;99388.18;125821;1099;102928;-80
2023/10/25 06:25:27;;;;;;;19.20;8.47;;;;;;;17.57;87.17;99387.30;127046;1098;104238;-83
2023/10/25 06:28:42;;;;;;;19.73;8.87;;;;;;;17.63;87.35;99389.02;126832;1098;104080;-82
2023/10/25 06:31:38;;;;;;;24.43;9.03;;;;;;;17.67;86.98;99382.77;127386;1098;101788;-86
2023/10/25 06:37:32;;;;;;;17.00;8.00;;;;;;;17.71;87.28;99387.15;126848;1099;101873;-81
2023/10/25 06:40:27;;;;;;;20.73;8.13;;;;;;;17.73;86.96;99395.95;127236;1098;101979;-82
2023/10/25 06:43:16;;;;;;;19.50;7.93;;;;;;;17.74;87.00;99392.42;125660;1097;104163;-79
2023/10/25 06:46:11;;;;;;;17.93;8.17;;;;;;;17.73;87.19;99395.95;127414;1098;102031;-85
2023/10/25 06:48:54;;;;;;;19.33;7.87;;;;;;;17.74;87.08;99393.29;125722;1099;104176;-81
2023/10/25 06:51:39;;;;;;;21.93;8.50;;;;;;;17.74;86.86;99392.42;127046;1098;101697;-82
2023/10/25 06:54:17;;;;;;;17.30;8.03;;;;;;;17.73;87.14;99383.59;127483;1098;101974;-82
2023/10/25 06:57:00;;;;;;;19.70;8.57;;;;;;;17.75;87.00;99383.58;127543;1098;102077;-78
2023/10/25 06:59:58;;;;;;;19.57;8.83;;;;;;;17.76;87.04;99377.35;126161;1098;102029;-84
2023/10/25 07:02:56;;;;;;;17.53;7.50;;;;;;;17.79;86.96;99372.91;127421;1098;104200;-87
2023/10/25 07:06:14;;;;;;;;;;;;;;;;;;;;;
2023/10/25 07:09:11;;;;;;;20.00;7.67;;;;;;;17.87;86.65;99375.48;126932;1098;101909;-86
2023/10/25 07:12:32;;;;;;;18.37;7.90;;;;;;;17.92;86.76;99384.28;127307;1098;101775;-85
2023/10/25 07:15:31;;;;;;;18.83;8.00;;;;;;;17.99;86.92;99394.83;126819;1098;101766;-81
2023/10/25 07:18:19;;;;;;;15.90;8.03;;;;;;;18.04;87.06;99391.20;126866;1098;104268;-81
2023/10/25 07:21:34;;;;;;;22.17;8.67;;;;;;;18.03;87.12;99392.12;125802;1099;104182;-79
2023/10/25 07:24:08;;;;;;;21.23;8.63;;;;;;;18.07;87.27;99395.59;125372;1099;103171;-82
2023/10/25 07:26:43;;;;;;;24.80;9.07;;;;;;;18.07;87.31;99395.59;125379;1098;102003;-82
2023/10/25 07:29:16;;;;;;;21.73;8.90;;;;;;;18.06;87.45;99400.05;126372;1098;101794;-76
2023/10/25 07:31:56;;;;;;;24.13;9.30;;;;;;;18.05;87.29;99390.31;124764;1099;104175;-77
2023/10/25 07:34:28;;;;;;;24.50;9.60;;;;;;;18.07;87.06;99382.33;125506;1099;102598;-77
2023/10/25 07:37:00;;;;;;;24.13;9.10;;;;;;;18.03;87.11;99377.95;124946;1099;102129;-79
2023/10/25 07:39:36;;;;;;;24.23;9.47;;;;;;;18.00;87.29;99370.92;125435;1102;101842;-78
2023/10/25 07:42:13;;;;;;;25.92;9.55;;;;;;;17.96;87.68;99359.44;124982;1099;104166;-86
2023/10/25 07:44:47;;;;;;;24.30;9.83;;;;;;;17.93;87.71;99356.83;125197;1099;104243;-79
2023/10/25 07:47:21;;;;;;;25.40;10.10;;;;;;;17.92;87.80;99356.84;125575;1099;101918;-76
2023/10/25 07:49:53;;;;;;;26.47;10.20;;;;;;;17.91;87.57;99355.98;125067;1098;104175;-78
2023/10/25 07:52:31;;;;;;;19.47;9.17;;;;;;;17.91;87.41;99357.77;124772;1099;102194;-78
2023/10/25 07:55:03;;;;;;;25.77;10.40;;;;;;;17.89;87.47;99356.92;125712;1099;102189;-81
2023/10/25 07:57:35;;;;;;;25.43;10.53;;;;;;;17.90;87.82;99356.00;125292;1099;104249;-84
2023/10/25 08:00:09;;;;;;;22.67;9.50;;;;;;;17.92;87.78;99355.09;126320;1098;104172;-78
2023/10/25 08:02:44;;;;;;;27.63;10.67;;;;;;;17.95;87.98;99338.23;125964;1099;101903;-77
2023/10/25 08:05:15;;;;;;;24.97;10.50;;;;;;;17.95;88.30;99325.86;125434;1099;101817;-80
2023/10/25 08:07:53;;;;;;;24.37;9.60;;;;;;;17.96;88.30;99314.33;126217;1098;102113;-76
2023/10/25 08:10:26;;;;;;;22.53;11.40;;;;;;;17.92;88.08;99307.33;124875;1102;104080;-77
2023/10/25 08:13:26;;;;;;;26.80;10.70;;;;;;;17.93;88.17;99310.84;125959;1099;101793;-79
2023/10/25 08:19:16;;;;;;;30.35;11.65;;;;;;;17.99;88.26;99294.84;125836;1098;101773;-79
2023/10/25 08:22:22;;;;;;;21.97;9.80;;;;;;;18.05;88.29;99293.89;125741;1099;104217;-81
2023/10/25 08:25:08;;;;;;;24.83;10.63;;;;;;;18.09;88.51;99304.44;126588;1098;101794;-78
2023/10/25 08:27:45;;;;;;;25.90;10.83;;;;;;;18.12;88.80;99295.53;125741;1099;104270;-83
2023/10/25 08:30:39;;;;;;;25.50;10.73;;;;;;;18.15;88.26;99303.45;126164;1098;104172;-79
2023/10/25 08:33:30;;;;;;;25.03;10.93;;;;;;;18.17;88.40;99293.72;127297;1098;101513;-78
2023/10/25 08:36:06;;;;;;;22.83;9.73;;;;;;;18.21;88.67;99289.23;126058;1098;104111;-79
2023/10/25 08:38:38;;;;;;;23.97;9.97;;;;;;;18.22;88.66;99288.34;125340;1099;102013;-79
2023/10/25 08:41:12;;;;;;;22.25;10.30;;;;;;;18.22;88.59;99267.09;126377;1098;102029;-79
2023/10/25 08:43:47;;;;;;;23.87;10.00;;;;;;;18.23;88.78;99266.17;125606;1099;101949;-83
2023/10/25 08:46:20;;;;;;;20.77;10.23;;;;;;;18.24;89.07;99266.16;125299;1099;104153;-82
2023/10/25 08:48:56;;;;;;;22.07;9.63;;;;;;;18.26;89.39;99255.52;125859;1099;104204;-82
2023/10/25 08:51:28;;;;;;;26.47;10.40;;;;;;;18.33;89.30;99249.21;126498;1098;104220;-89
2023/10/25 08:54:29;;;;;;;21.27;10.00;;;;;;;18.44;89.07;99241.08;126074;1099;102122;-82
2023/10/25 08:57:13;;;;;;;22.10;9.50;;;;;;;18.55;89.41;99246.21;126050;1098;104184;-82
2023/10/25 08:59:54;;;;;;;24.70;10.40;;;;;;;18.66;89.71;99245.11;127073;1098;101772;-85
2023/10/25 09:02:49;;;;;;;;;;;;;;;;;;;;;
2023/10/25 09:05:50;;;;;;;23.33;10.07;;;;;;;18.97;89.04;99236.61;126786;1098;101808;-79
2023/10/25 09:08:32;;;;;;;;;;;;;;;;;;;;;
2023/10/25 09:11:13;;;;;;;24.83;10.87;;;;;;;19.21;89.55;99223.75;126653;1098;104268;-79
2023/10/25 09:14:40;;;;;;;21.27;9.63;;;;;;;19.29;88.63;99208.53;126697;1098;104121;-78
2023/10/25 09:17:24;;;;;;;20.77;9.40;;;;;;;19.32;88.60;99208.47;126222;1099;102524;-80
2023/10/25 09:19:57;;;;;;;23.27;10.10;;;;;;;19.31;89.15;99205.84;125029;1099;102002;-79
2023/10/25 09:28:19;;;;;;;19.03;8.97;;;;;;;19.36;88.46;99209.28;126732;1093;102575;-77
2023/10/25 09:42:14;;;;;;;27.57;9.17;;;;;;;19.73;87.94;99188.06;126917;1102;101784;-84
2023/10/25 09:44:50;;;;;;;21.30;9.17;;;;;;;19.87;88.64;99179.80;125594;1109;101786;-82
2023/10/25 09:47:35;;;;;;;24.60;8.80;;;;;;;19.97;88.58;99168.94;126309;1105;101784;-84
2023/10/25 09:50:21;;;;;;;21.43;9.00;;;;;;;20.06;87.60;99166.05;125579;1105;104217;-83
2023/10/25 09:53:02;;;;;;;23.33;9.13;;;;;;;20.14;88.39;99169.39;126060;1103;101942;-81
2023/10/25 09:55:45;;;;;;;25.60;10.10;;;;;;;20.22;87.98;99170.06;125870;1105;101865;-84
2023/10/25 09:58:43;;;;;;;22.97;8.87;;;;;;;20.32;87.15;99169.84;125773;1105;102045;-86
2023/10/25 10:09:11;;;;;;;24.27;9.27;;;;;;;20.67;85.58;99154.77;125300;1109;101900;-89
2023/10/25 10:12:09;;;;;;;22.93;10.10;;;;;;;20.72;85.13;99151.03;125410;1112;102006;-84
2023/10/25 10:14:51;;;;;;;24.27;9.10;;;;;;;20.76;85.32;99150.05;125008;1112;102537;-81
2023/10/25 10:17:28;;;;;;;;;;;;;;;20.81;84.92;99141.92;124674;1112;104217;-81
2023/10/25 10:20:22;;;;;;;22.90;8.43;;;;;;;20.79;84.24;99149.97;124892;1112;102109;-83
2023/10/25 10:23:16;;;;;;;20.70;8.23;;;;;;;20.78;84.06;99147.34;125038;1109;107062;-89
2023/10/25 10:26:05;;;;;;;22.17;8.83;;;;;;;20.74;83.25;99146.56;125155;1109;101814;-88
2023/10/25 10:28:46;;;;;;;20.83;8.47;;;;;;;20.72;82.80;99143.05;125369;1105;104169;-81
2023/10/25 10:31:26;;;;;;;21.73;8.17;;;;;;;20.69;83.08;99142.27;125787;1105;104248;-82
2023/10/25 10:34:10;;;;;;;24.80;8.47;;;;;;;20.66;83.24;99143.20;125676;1105;102009;-83
2023/10/25 10:37:07;;;;;;;21.43;7.97;;;;;;;20.68;82.90;99132.51;125997;1105;101716;-83
2023/10/25 10:39:55;;;;;;;23.37;8.33;;;;;;;20.73;82.29;99117.28;125920;1105;101709;-83
2023/10/25 10:43:12;;;;;;;;;;;;;;;;;;;;;
2023/10/25 10:45:53;;;;;;;20.87;8.50;;;;;;;21.00;83.03;99094.27;126318;1104;101297;-80
2023/10/25 10:48:39;;;;;;;20.33;8.47;;;;;;;21.04;82.91;99085.28;126109;1105;101936;-76
2023/10/25 10:51:14;;;;;;;20.60;8.30;;;;;;;21.05;82.88;99079.03;124512;1106;104169;-80
2023/10/25 10:53:49;;;;;;;22.50;8.00;;;;;;;21.00;82.81;99078.28;126433;1104;101586;-80
2023/10/25 10:56:20;;;;;;;21.00;8.65;;;;;;;20.95;81.62;99058.89;124684;1105;102131;-80
2023/10/25 10:59:06;;;;;;;24.37;9.00;;;;;;;20.91;81.67;99074.11;125625;1105;101722;-80
2023/10/25 11:01:57;;;;;;;24.73;8.60;;;;;;;20.85;81.46;99074.28;125766;1104;102067;-78
2023/10/25 11:04:54;;;;;;;;;;;;;;;;;;;;;
2023/10/25 11:07:29;;;;;;;23.13;8.23;;;;;;;20.69;80.93;99095.15;124965;1105;101856;-78
2023/10/25 11:10:17;;;;;;;23.80;8.40;;;;;;;20.60;80.68;99087.37;125434;1105;102376;-78
2023/10/25 11:13:13;;;;;;;22.87;8.70;;;;;;;20.54;81.27;99075.12;125554;1105;102136;-80
2023/10/25 11:16:06;;;;;;;25.55;9.00;;;;;;;20.46;80.48;99088.66;125889;1104;102374;-83
2023/10/25 11:18:37;;;;;;;22.13;8.47;;;;;;;20.40;79.85;99078.16;125158;1105;101929;-89
2023/10/25 11:21:14;;;;;;;25.60;8.90;;;;;;;20.38;80.87;99080.00;125691;1105;104192;-86
2023/10/25 11:23:46;;;;;;;;;;;;;;;20.36;80.11;99079.15;125935;1104;102140;-88
2023/10/25 11:26:21;;;;;;;26.50;8.37;;;;;;;20.34;80.78;99066.81;125203;1105;102784;-81
2023/10/25 11:29:15;;;;;;;22.83;8.57;;;;;;;20.33;80.16;99071.23;126222;1104;102320;-88
2023/10/25 11:32:06;;;;;;;22.00;8.33;;;;;;;20.32;79.43;99058.86;126236;1105;101665;-83
2023/10/25 11:34:52;;;;;;;26.97;8.57;;;;;;;20.33;79.18;99055.26;125212;1105;103414;-85
2023/10/25 11:37:39;;;;;;;;;;;;;;;;;;;;;
2023/10/25 11:40:34;;;;;;;22.37;7.77;;;;;;;20.36;78.68;99052.52;125993;1105;101845;-81
2023/10/25 11:43:11;;;;;;;22.90;8.07;;;;;;;20.45;78.84;99054.06;125215;1105;103798;-90
2023/10/25 11:46:07;;;;;;;26.17;8.37;;;;;;;20.55;79.62;99060.86;125145;1105;104313;-84
2023/10/25 11:49:03;;;;;;;26.87;8.70;;;;;;;20.64;79.59;99060.63;125391;1102;104172;-84
2023/10/25 11:51:38;;;;;;;22.10;8.95;;;;;;;20.70;79.53;99069.39;127487;1098;101587;-81
2023/10/25 11:54:28;;;;;;;27.75;9.40;;;;;;;20.72;78.86;99063.08;124956;1099;104265;-80
2023/10/25 11:57:26;;;;;;;26.00;9.60;;;;;;;20.70;78.89;99070.26;126223;1100;102636;-86
2023/10/25 12:00:24;;;;;;;25.40;8.80;;;;;;;20.67;78.73;99078.34;125390;1099;104218;-83
2023/10/25 12:03:00;;;;;;;;;;;;;;;20.60;79.10;99082.95;126453;1098;101914;-83
2023/10/25 12:05:41;;;;;;;;;;;;;;;;;;;;;
2023/10/25 12:08:27;;;;;;;23.10;8.53;;;;;;;20.50;77.95;99083.24;125002;1099;101939;-84
2023/10/25 12:11:06;;;;;;;24.20;9.40;;;;;;;20.47;78.52;99065.54;126606;1098;102365;-84
2023/10/25 12:13:55;;;;;;;;;;;;;;;;;;;;;
2023/10/25 12:16:44;;;;;;;25.60;10.40;;;;;;;20.43;78.90;99062.09;125223;1099;102398;-79
2023/10/25 12:19:36;;;;;;;20.53;9.97;;;;;;;20.40;78.68;99048.00;124276;1102;102038;-78
2023/10/25 12:22:15;;;;;;;21.63;9.33;;;;;;;20.39;79.28;99043.57;124279;1099;104175;-77
2023/10/25 12:25:05;;;;;;;24.97;10.07;;;;;;;20.43;79.81;99038.12;124921;1102;102535;-83
2023/10/25 12:27:34;;;;;;;27.53;10.50;;;;;;;20.48;79.30;99035.33;125344;1102;102253;-82
2023/10/25 12:30:06;;;;;;;32.00;11.70;;;;;;;20.55;79.86;99044.88;125428;1099;104224;-81
2023/10/25 12:32:48;;;;;;;28.20;10.30;;;;;;;20.60;80.29;99045.64;125683;1100;102227;-81
2023/10/25 12:35:32;;;;;;;26.73;11.37;;;;;;;20.61;80.42;99054.50;125793;1102;101781;-82
2023/10/25 12:38:34;;;;;;;26.10;11.50;;;;;;;20.52;80.19;99041.43;125878;1098;102431;-81
2023/10/25 12:42:27;;;;;;;24.70;9.90;;;;;;;20.45;79.51;99038.94;126487;1100;104163;-82
2023/10/25 12:46:10;;;;;;;27.20;10.77;;;;;;;20.37;79.21;99019.64;125072;1102;104217;-82
2023/10/25 12:48:49;;;;;;;27.73;11.60;;;;;;;20.31;80.16;99019.81;126152;1099;104242;-84